地図

経路データ

SID SEASON NUMBER BASIN SUBBASIN NAME ISO_TIME NATURE LAT LON WMO_WIND WMO_PRES WMO_AGENCY TRACK_TYPE DIST2LAND LANDFALL IFLAG USA_AGENCY USA_ATCF_ID USA_LAT USA_LON USA_RECORD USA_STATUS USA_WIND USA_PRES USA_SSHS USA_R34_NE USA_R34_SE USA_R34_SW USA_R34_NW USA_R50_NE USA_R50_SE USA_R50_SW USA_R50_NW USA_R64_NE USA_R64_SE USA_R64_SW USA_R64_NW USA_POCI USA_ROCI USA_RMW USA_EYE TOKYO_LAT TOKYO_LON TOKYO_GRADE TOKYO_WIND TOKYO_PRES TOKYO_R50_DIR TOKYO_R50_LONG TOKYO_R50_SHORT TOKYO_R30_DIR TOKYO_R30_LONG TOKYO_R30_SHORT TOKYO_LAND CMA_LAT CMA_LON CMA_CAT CMA_WIND CMA_PRES HKO_LAT HKO_LON HKO_CAT HKO_WIND HKO_PRES NEWDELHI_LAT NEWDELHI_LON NEWDELHI_GRADE NEWDELHI_WIND NEWDELHI_PRES NEWDELHI_CI NEWDELHI_DP NEWDELHI_POCI REUNION_LAT REUNION_LON REUNION_TYPE REUNION_WIND REUNION_PRES REUNION_TNUM REUNION_CI REUNION_RMW REUNION_R34_NE REUNION_R34_SE REUNION_R34_SW REUNION_R34_NW REUNION_R50_NE REUNION_R50_SE REUNION_R50_SW REUNION_R50_NW REUNION_R64_NE REUNION_R64_SE REUNION_R64_SW REUNION_R64_NW BOM_LAT BOM_LON BOM_TYPE BOM_WIND BOM_PRES BOM_TNUM BOM_CI BOM_RMW BOM_R34_NE BOM_R34_SE BOM_R34_SW BOM_R34_NW BOM_R50_NE BOM_R50_SE BOM_R50_SW BOM_R50_NW BOM_R64_NE BOM_R64_SE BOM_R64_SW BOM_R64_NW BOM_ROCI BOM_POCI BOM_EYE BOM_POS_METHOD BOM_PRES_METHOD NADI_LAT NADI_LON NADI_CAT NADI_WIND NADI_PRES WELLINGTON_LAT WELLINGTON_LON WELLINGTON_WIND WELLINGTON_PRES DS824_LAT DS824_LON DS824_STAGE DS824_WIND DS824_PRES TD9636_LAT TD9636_LON TD9636_STAGE TD9636_WIND TD9636_PRES TD9635_LAT TD9635_LON TD9635_WIND TD9635_PRES TD9635_ROCI NEUMANN_LAT NEUMANN_LON NEUMANN_CLASS NEUMANN_WIND NEUMANN_PRES MLC_LAT MLC_LON MLC_CLASS MLC_WIND MLC_PRES USA_GUST BOM_GUST BOM_GUST_PER REUNION_GUST REUNION_GUST_PER USA_SEAHGT USA_SEARAD_NE USA_SEARAD_SE USA_SEARAD_SW USA_SEARAD_NW STORM_SPEED STORM_DIR
1986136N18114 1986 50 WP MM MAC 1986-05-16 06:00:00 TS 17.5000 113.800 main 377 358 __O___________ -1 17.5000 113.800 1 23 1001 8 235
1986136N18114 1986 50 WP MM MAC 1986-05-16 09:00:00 TS 17.2702 113.457 main 358 343 __P___________ -1 17.2702 113.457 1 23 1001 8 229
1986136N18114 1986 50 WP MM MAC 1986-05-16 12:00:00 TS 17.0000 113.200 main 349 347 __O___________ -1 17.0000 113.200 1 23 1001 7 211
1986136N18114 1986 50 WP MM MAC 1986-05-16 15:00:00 TS 16.6649 113.078 main 361 361 __P___________ -1 16.6649 113.078 1 23 1001 7 195
1986136N18114 1986 50 WP MM MAC 1986-05-16 18:00:00 TS 16.3000 113.000 main 384 384 __O___________ -1 16.3000 113.000 1 23 1001 8 194
1986136N18114 1986 50 WP MM MAC 1986-05-16 21:00:00 TS 15.9199 112.880 main 410 403 __P___________ -1 15.9199 112.880 1 23 1000 6 212
1986136N18114 1986 50 WP MM MAC 1986-05-17 00:00:00 TS 15.7800 112.660 1002 tokyo main 405 371 _OO___________ -1 16.5000 112.500 2 1002 0 0 0 15.6000 112.700 1 23 1000 6 242
1986136N18114 1986 50 WP MM MAC 1986-05-17 03:00:00 TS 15.6550 112.369 main 371 334 _PP___________ -1 16.1401 112.247 2 1001 0 0 15.4125 112.430 1 26 999 6 245
1986136N18114 1986 50 WP MM MAC 1986-05-17 06:00:00 TS 15.5143 112.057 1000 tokyo main 334 300 _OO___________ -1 15.8000 112.000 2 1000 0 0 0 15.3000 112.100 1 29 998 7 242
1986136N18114 1986 50 WP MM MAC 1986-05-17 09:00:00 TS 15.3450 111.754 main 297 263 _PP___________ -1 15.5049 111.758 2 1000 0 0 15.1850 111.750 1 29 998 7 242
1986136N18114 1986 50 WP MM MAC 1986-05-17 12:00:00 TS 15.2000 111.450 1000 tokyo main 263 230 _OO___________ -1 15.3000 111.500 2 1000 0 0 0 15.1000 111.400 1 29 998 6 248
1986136N18114 1986 50 WP MM MAC 1986-05-17 15:00:00 TS 15.1162 111.158 main 230 198 _PP___________ -1 15.1975 111.208 2 999 0 0 15.0349 111.108 1 29 998 6 260
1986136N18114 1986 50 WP MM MAC 1986-05-17 18:00:00 TS 15.1000 110.850 998 tokyo main 198 157 _OO___________ -1 15.2000 110.900 2 998 0 0 0 15.0000 110.800 1 29 998 6 270
1986136N18114 1986 50 WP MM MAC 1986-05-17 21:00:00 TS 15.1125 110.492 main 157 130 _PP___________ -1 15.2700 110.585 2 998 0 0 14.9551 110.400 1 29 998 7 278
1986136N18114 1986 50 WP MM MAC 1986-05-18 00:00:00 TS 15.2000 110.150 998 tokyo main 130 106 _OO___________ -1 15.4000 110.300 2 998 0 0 0 15.0000 110.000 1 29 998 7 291
1986136N18114 1986 50 WP MM MAC 1986-05-18 03:00:00 TS 15.3512 109.863 main 109 92 _PP___________ -1 15.5200 110.077 2 998 0 0 15.1825 109.648 1 29 998 6 310
1986136N18114 1986 50 WP MM MAC 1986-05-18 06:00:00 TS 15.6000 109.650 998 tokyo main 96 87 _OO___________ -1 15.7000 109.900 2 998 0 0 0 15.5000 109.400 1 29 998 7 330
1986136N18114 1986 50 WP MM MAC 1986-05-18 09:00:00 TS 15.9487 109.505 main 100 100 _PP___________ -1 15.9775 109.728 2 998 0 0 15.9199 109.283 1 29 998 8 346
1986136N18114 1986 50 WP MM MAC 1986-05-18 12:00:00 TS 16.3500 109.450 998 tokyo main 135 125 _OO___________ -1 16.3000 109.600 2 998 0 0 0 16.4000 109.300 1 29 998 8 0
1986136N18114 1986 50 WP MM MAC 1986-05-18 15:00:00 TS 16.7363 109.485 main 150 123 _PP___________ -1 16.6075 109.535 2 998 0 0 16.8650 109.435 1 29 997 8 7
1986136N18114 1986 50 WP MM MAC 1986-05-18 18:00:00 TS 17.1000 109.550 998 tokyo main 123 89 _OO___________ -1 16.9000 109.500 2 998 0 0 0 17.3000 109.600 1 29 997 7 7
1986136N18114 1986 50 WP MM MAC 1986-05-18 21:00:00 TS 17.4187 109.569 main 89 55 _PP___________ -1 17.1500 109.443 2 998 0 0 17.6875 109.695 1 29 997 6 1
1986136N18114 1986 50 WP MM MAC 1986-05-19 00:00:00 TS 17.7000 109.550 998 tokyo main 55 33 _OO___________ -1 17.4000 109.400 2 998 0 0 0 18.0000 109.700 1 29 997 6 350
1986136N18114 1986 50 WP MM MAC 1986-05-19 03:00:00 TS 17.9613 109.464 main 22 10 _PP___________ -1 17.6925 109.392 2 998 0 0 18.2301 109.535 1 24 996 5 344
1986136N18114 1986 50 WP MM MAC 1986-05-19 06:00:00 TS 18.2000 109.400 998 tokyo main 10 0 _OO___________ -1 18.0000 109.400 2 998 0 0 0 18.4000 109.400 0 19 995 5 357
1986136N18114 1986 50 WP MM MAC 1986-05-19 09:00:00 TS 18.4288 109.445 main 0 0 _PP___________ -1 18.3000 109.385 2 998 0 0 18.5575 109.505 0 19 995 5 17
1986136N18114 1986 50 WP MM MAC 1986-05-19 12:00:00 TS 18.6500 109.550 998 tokyo main 0 0 _OO___________ -1 18.6000 109.400 2 998 0 0 0 18.7000 109.700 0 19 995 5 25
1986136N18114 1986 50 WP MM MAC 1986-05-19 15:00:00 TS 18.8637 109.664 main 0 0 _PP___________ -1 18.9000 109.478 2 998 0 0 18.8275 109.850 0 19 995 5 28
1986136N18114 1986 50 WP MM MAC 1986-05-19 18:00:00 TS 19.1000 109.800 998 tokyo main 0 0 _OO___________ -1 19.2000 109.600 2 998 0 0 0 19.0000 110.000 0 19 995 6 25
1986136N18114 1986 50 WP MM MAC 1986-05-19 21:00:00 TS 19.4037 109.935 main 0 0 _PP___________ -1 19.5150 109.728 2 997 0 0 19.2925 110.142 0 19 995 7 25
1986136N18114 1986 50 WP MM MAC 1986-05-20 00:00:00 TS 19.7000 110.100 996 tokyo main 0 0 _OO___________ -1 19.8000 109.900 2 996 0 0 0 19.6000 110.300 0 19 995 6 34
1986136N18114 1986 50 WP MM MAC 1986-05-20 03:00:00 TS 19.9187 110.310 main 0 0 _PP___________ -1 20.0300 110.128 2 996 0 0 19.8075 110.493 0 19 995 6 47
1986136N18114 1986 50 WP MM MAC 1986-05-20 06:00:00 TS 20.1000 110.550 996 tokyo main 0 0 _OO___________ -1 20.2000 110.400 2 996 0 0 0 20.0000 110.700 0 19 995 6 50
1986136N18114 1986 50 WP MM MAC 1986-05-20 09:00:00 TS 20.2975 110.793 main 24 24 _PP___________ -1 20.3225 110.693 2 996 0 0 20.2724 110.892 0 24 995 6 53
1986136N18114 1986 50 WP MM MAC 1986-05-20 12:00:00 TS 20.4500 111.050 996 tokyo main 61 61 _OO___________ -1 20.4000 111.000 2 996 0 0 0 20.5000 111.100 1 29 995 6 66
1986136N18114 1986 50 WP MM MAC 1986-05-20 15:00:00 TS 20.5300 111.336 main 76 76 _PP___________ -1 20.4650 111.315 2 996 0 0 20.5950 111.358 1 29 995 5 79
1986136N18114 1986 50 WP MM MAC 1986-05-20 18:00:00 TS 20.5500 111.600 996 tokyo main 94 94 _OO___________ -1 20.5000 111.600 2 996 0 0 0 20.6000 111.600 1 29 995 4 90
1986136N18114 1986 50 WP MM MAC 1986-05-20 21:00:00 TS 20.5324 111.798 main 113 113 _PP___________ -1 20.5075 111.830 2 996 0 0 20.5574 111.765 1 29 995 3 122
1986136N18114 1986 50 WP MM MAC 1986-05-21 00:00:00 TS 20.3778 111.889 996 tokyo main 118 113 _OO_______O___ -1 20.5000 112.000 2 996 0 0 0 20.5000 111.900 1 29 995 19.4000 111.400 1 25 3 144
1986136N18114 1986 50 WP MM MAC 1986-05-21 03:00:00 TS 20.2888 111.987 main 123 119 _PP_______P___ -1 20.5000 112.115 2 996 0 0 20.5000 112.050 1 29 995 19.4441 111.605 1 25 2 129
1986136N18114 1986 50 WP MM MAC 1986-05-21 06:00:00 TS 20.2246 112.090 996 tokyo main 129 129 _OO_______P___ -1 20.5000 112.200 2 996 0 0 0 20.5000 112.200 1 29 995 19.4904 111.797 1 25 2 120
1986136N18114 1986 50 WP MM MAC 1986-05-21 09:00:00 TS 20.1688 112.208 main 139 139 _PP_______P___ -1 20.5075 112.300 2 996 0 0 20.4575 112.358 1 33 995 19.5415 111.967 1 25 2 104
1986136N18114 1986 50 WP MM MAC 1986-05-21 12:00:00 TS 20.1667 112.333 996 tokyo main 150 150 _OO_______O___ -1 20.5000 112.400 2 996 0 0 0 20.4000 112.500 2 38 995 19.6000 112.100 1 25 2 94
1986136N18114 1986 50 WP MM MAC 1986-05-21 15:00:00 TS 20.1553 112.436 main 160 160 _PP_______P___ -1 20.4500 112.500 2 997 0 0 20.3500 112.615 2 38 995 19.6660 112.193 1 25 2 98
1986136N18114 1986 50 WP MM MAC 1986-05-21 18:00:00 TS 20.1432 112.523 998 tokyo main 166 166 _OO_______P___ -1 20.4000 112.600 2 998 0 0 0 20.3000 112.700 2 38 995 19.7296 112.270 1 25 2 92
1986136N18114 1986 50 WP MM MAC 1986-05-21 21:00:00 TS 20.1503 112.596 main 170 170 _PP_______P___ -1 20.4075 112.692 2 998 0 0 20.2650 112.735 2 38 995 19.7784 112.362 1 25 2 93
1986136N18114 1986 50 WP MM MAC 1986-05-22 00:00:00 TS 20.1333 112.700 998 tokyo main 183 183 _OO_______O___ -1 20.4000 112.800 2 998 0 0 0 20.2000 112.800 2 38 995 19.8000 112.500 1 25 3 111
1986136N18114 1986 50 WP MM MAC 1986-05-22 03:00:00 TS 20.0464 112.883 main 200 200 _PP_______P___ -1 20.3150 112.943 2 998 0 0 20.0575 112.978 2 38 995 19.7668 112.729 1 25 4 120
1986136N18114 1986 50 WP MM MAC 1986-05-22 06:00:00 TS 19.9255 113.086 998 tokyo main 217 217 OOO_______P___ jtwc_wp WP041986 19.8000 112.900 25 -1 20.2000 113.100 2 998 0 0 0 19.9000 113.200 2 38 995 19.7078 113.005 1 25 5 120
1986136N18114 1986 50 WP MM MAC 1986-05-22 09:00:00 TS 19.8224 113.298 main 235 235 PPP_______P___ WP041986 19.6827 113.270 25 -1 20.1074 113.227 2 998 0 0 19.7849 113.377 2 38 995 19.6449 113.304 1 25 5 114
1986136N18114 1986 50 WP MM MAC 1986-05-22 12:00:00 TS 19.7333 113.547 998 tokyo main 251 251 OOO_______O___ jtwc_wp WP041986 19.6000 113.600 25 -1 20.0000 113.400 2 998 0 0 0 19.7000 113.600 2 38 995 19.6000 113.600 1 25 5 108
1986136N18114 1986 50 WP MM MAC 1986-05-22 15:00:00 TS 19.6627 113.830 main 259 259 PPP_______P___ WP041986 19.5774 113.865 25 -1 19.8425 113.678 2 998 0 0 19.6275 113.920 2 38 995 19.6033 113.857 1 25 6 101
1986136N18114 1986 50 WP MM MAC 1986-05-22 18:00:00 TS 19.6318 114.127 998 tokyo main 281 281 OOO_______P___ jtwc_wp WP041986 19.6000 114.100 25 -1 19.7000 114.000 2 998 0 0 0 19.6000 114.300 2 38 995 19.6273 114.107 1 25 6 92
1986136N18114 1986 50 WP MM MAC 1986-05-22 21:00:00 TS 19.6476 114.437 main 295 291 PPP_______P___ WP041986 19.6500 114.350 25 -1 19.6350 114.307 2 998 0 0 19.6427 114.737 2 38 995 19.6627 114.354 1 25 6 86
1986136N18114 1986 50 WP MM MAC 1986-05-23 00:00:00 TS 19.6706 114.718 998 tokyo main 293 293 OOOO______O___ jtwc_wp WP041986 19.7000 114.600 25 -1 19.6000 114.600 2 998 0 0 0 19.7000 115.100 2 38 995 19.6000 114.600 TD 25 999 19.7000 114.600 1 25 5 89
1986136N18114 1986 50 WP MM MAC 1986-05-23 03:00:00 TS 19.6561 114.939 main 297 297 PPPP______P___ WP041986 19.7000 114.850 25 -1 19.5350 114.865 2 997 0 0 19.7073 115.238 2 38 995 19.5951 114.850 TD 27 999 19.7127 114.846 1 25 4 93
1986136N18114 1986 50 WP MM MAC 1986-05-23 06:00:00 TS 19.6479 115.141 996 tokyo main 313 305 OOOO______P___ jtwc_wp WP041986 19.7000 115.100 25 -1 19.5000 115.100 2 996 0 0 0 19.7000 115.300 2 38 995 19.6000 115.100 TD 30 999 19.7273 115.093 1 25 4 89
1986136N18114 1986 50 WP MM MAC 1986-05-23 09:00:00 TS 19.6641 115.356 main 312 312 PPPP______P___ WP041986 19.7350 115.350 25 -1 19.5274 115.300 2 995 0 0 19.6775 115.435 2 38 995 19.6275 115.350 TD 30 999 19.7533 115.343 1 25 4 80
1986136N18114 1986 50 WP MM MAC 1986-05-23 12:00:00 TS 19.7200 115.580 40 994 tokyo main 320 313 OOOO______O___ jtwc_wp WP041986 19.8000 115.600 25 -1 19.6000 115.500 3 40 994 0 9 80 80 0 19.7000 115.600 2 38 995 19.7000 115.600 TD 30 999 19.8000 115.600 1 25 5 69
1986136N18114 1986 50 WP MM MAC 1986-05-23 15:00:00 TS 19.8291 115.815 main 316 303 PPPP______P___ WP041986 19.8924 115.843 25 -1 19.6925 115.742 3 40 993 0 9 80 80 19.8274 115.770 2 38 995 19.8425 115.850 TD 30 998 19.8906 115.872 1 25 5 63
1986136N18114 1986 50 WP MM MAC 1986-05-23 18:00:00 TS 19.9600 116.070 40 992 tokyo main 303 295 OOOO______P___ jtwc_wp WP041986 20.0000 116.100 25 -1 19.8000 116.000 3 40 992 0 9 80 80 0 20.0000 116.000 2 38 995 20.0000 116.100 TD 30 998 20.0000 116.150 1 25 6 63
1986136N18114 1986 50 WP MM MAC 1986-05-23 21:00:00 TS 20.0839 116.353 main 297 288 PPPP______P___ WP041986 20.1075 116.400 25 -1 19.9074 116.243 3 40 992 0 9 80 80 20.1802 116.350 2 38 995 20.1149 116.343 TD 30 998 20.1093 116.428 1 25 6 68
1986136N18114 1986 50 WP MM MAC 1986-05-24 00:00:00 TS 20.1800 116.640 40 992 tokyo main 291 291 OOOO______O___ jtwc_wp WP041986 20.2000 116.700 25 -1 20.0000 116.500 3 40 992 0 9 80 80 0 20.3000 116.700 2 38 995 20.2000 116.600 TD 30 998 20.2000 116.700 1 25 5 74
1986136N18114 1986 50 WP MM MAC 1986-05-24 03:00:00 TS 20.2288 116.899 main 301 301 PPPP______P___ WP041986 20.2649 116.958 25 -1 20.0574 116.785 3 40 992 0 9 80 80 20.2949 116.915 2 38 995 20.2725 116.892 TD 30 997 20.2544 116.945 1 25 5 83
1986136N18114 1986 50 WP MM MAC 1986-05-24 06:00:00 TS 20.2374 117.157 40 992 tokyo main 310 310 OOOO______P___ jtwc_wp WP041986 20.3000 117.200 25 -1 20.1000 117.100 3 40 992 0 9 80 80 0 20.2000 117.100 2 38 995 20.3000 117.200 TD 30 996 20.2871 117.185 1 25 5 92
1986136N18114 1986 50 WP MM MAC 1986-05-24 09:00:00 TS 20.2147 117.432 main 315 315 PPPP______P___ WP041986 20.3074 117.443 25 -1 20.1650 117.450 3 37 993 0 9 80 80 20.0350 117.335 2 38 995 20.2649 117.500 TD 30 996 20.3012 117.433 1 25 5 96
1986136N18114 1986 50 WP MM MAC 1986-05-24 12:00:00 TS 20.1800 117.720 35 994 tokyo main 326 326 OOOO______O___ jtwc_wp WP041986 20.3000 117.700 25 -1 20.2000 117.800 3 35 994 0 9 80 80 0 19.9000 117.600 2 38 995 20.2000 117.800 TD 30 996 20.3000 117.700 1 25 6 95
1986136N18114 1986 50 WP MM MAC 1986-05-24 15:00:00 TS 20.1662 118.016 main 338 313 PPPP______P___ WP041986 20.3074 117.985 25 -1 20.1649 118.108 3 35 994 0 9 70 70 19.9274 117.877 2 38 995 20.1500 118.100 TD 30 996 20.2813 118.008 1 26 6 93
1986136N18114 1986 50 WP MM MAC 1986-05-24 18:00:00 TS 20.1500 118.327 35 994 tokyo main 313 283 OOOO______P___ jtwc_wp WP041986 20.3000 118.300 25 -1 20.1000 118.400 3 35 994 0 9 60 60 0 20.0000 118.200 2 38 995 20.1000 118.400 TD 30 996 20.2501 118.335 1 27 6 95
1986136N18114 1986 50 WP MM MAC 1986-05-24 21:00:00 TS 20.1152 118.660 main 275 252 PPPP______P___ WP041986 20.2500 118.643 27 -1 20.0574 118.700 3 35 995 0 9 60 60 20.0000 118.593 2 38 995 20.0499 118.692 TD 32 996 20.2188 118.670 1 28 6 96
1986136N18114 1986 50 WP MM MAC 1986-05-25 00:00:00 TS 20.0800 119.000 35 996 tokyo main 252 230 OOOO______O___ jtwc_wp WP041986 20.2000 119.000 30 -1 20.0000 119.000 3 35 996 0 9 60 60 0 20.0000 119.000 2 38 995 20.0000 119.000 TS 35 996 20.2000 119.000 1 30 6 96
1986136N18114 1986 50 WP MM MAC 1986-05-25 03:00:00 TS 20.0513 119.342 main 230 200 PPPP______P___ WP041986 20.1850 119.365 30 -1 19.8924 119.300 3 35 996 0 9 60 60 20.0425 119.372 2 38 995 19.9426 119.358 TS 35 996 20.1943 119.315 1 30 6 94
1986136N18114 1986 50 WP MM MAC 1986-05-25 06:00:00 TS 20.0410 119.665 35 996 tokyo main 194 182 OOOO______P___ jtwc_wp WP041986 20.2000 119.700 30 -1 19.8000 119.600 3 35 996 0 9 60 60 0 20.1000 119.700 2 38 995 19.9000 119.700 TS 35 996 20.2049 119.623 1 30 6 90
1986136N18114 1986 50 WP MM MAC 1986-05-25 09:00:00 TS 20.0540 119.944 main 192 179 PPPP______P___ WP041986 20.2424 119.965 30 -1 19.7550 119.908 3 35 996 0 9 60 60 20.1499 119.965 2 38 995 19.8849 119.965 TS 35 996 20.2380 119.919 1 30 5 83
1986136N18114 1986 50 WP MM MAC 1986-05-25 12:00:00 TS 20.1000 120.200 35 996 tokyo main 179 172 OOOO______O___ jtwc_wp WP041986 20.3000 120.200 30 -1 19.8000 120.200 3 35 996 0 9 60 60 0 20.2000 120.200 2 38 995 19.9000 120.200 TS 35 996 20.3000 120.200 1 30 5 77
1986136N18114 1986 50 WP MM MAC 1986-05-25 15:00:00 TS 20.1625 120.462 main 181 178 PPPP______P___ WP041986 20.3275 120.450 30 -1 19.9625 120.465 3 35 996 0 9 60 60 20.2425 120.465 2 38 995 19.9125 120.458 TS 35 996 20.3677 120.473 1 31 5 70
1986136N18114 1986 50 WP MM MAC 1986-05-25 18:00:00 TS 20.2735 120.706 35 996 tokyo main 178 167 OOOO______P___ jtwc_wp WP041986 20.4000 120.700 30 -1 20.2000 120.700 3 35 996 0 9 60 60 0 20.3000 120.700 2 38 995 20.0000 120.700 TS 35 996 20.4673 120.730 1 32 5 57
1986136N18114 1986 50 WP MM MAC 1986-05-25 21:00:00 TS 20.4406 120.916 main 167 145 PPPP______P___ WP041986 20.5700 120.950 32 -1 20.4350 120.908 3 35 996 0 9 60 60 20.3849 120.850 2 38 995 20.2049 120.900 TS 37 995 20.6083 120.973 1 33 5 45
1986136N18114 1986 50 WP MM MAC 1986-05-26 00:00:00 TS 20.6600 121.120 35 996 tokyo main 135 119 OOOO______O___ jtwc_wp WP041986 20.8000 121.200 35 0 20.7000 121.100 3 35 996 0 9 60 60 0 20.5000 121.000 2 38 995 20.5000 121.100 TS 40 994 20.8000 121.200 2 35 6 42
1986136N18114 1986 50 WP MM MAC 1986-05-26 03:00:00 TS 20.9004 121.352 main 123 106 PPPP______P___ WP041986 21.0275 121.465 40 0 20.9925 121.300 3 35 995 0 9 60 60 20.5900 121.228 2 38 995 20.8425 121.342 TS 40 994 21.0496 121.422 2 37 7 39
1986136N18114 1986 50 WP MM MAC 1986-05-26 06:00:00 TS 21.1895 121.586 35 994 tokyo main 106 98 OOOO______P___ jtwc_wp WP041986 21.3000 121.700 45 0 21.3000 121.500 3 35 994 0 9 60 60 0 20.8000 121.500 2 38 995 21.2000 121.600 TS 40 994 21.3474 121.630 2 40 8 34
1986136N18114 1986 50 WP MM MAC 1986-05-26 09:00:00 TS 21.5338 121.803 main 103 98 PPPP______P___ WP041986 21.6425 121.880 45 0 21.5924 121.678 3 37 994 0 9 70 70 21.2550 121.792 2 43 995 21.5074 121.843 TS 40 994 21.6715 121.822 2 42 8 30
1986136N18114 1986 50 WP MM MAC 1986-05-26 12:00:00 TS 21.9000 122.020 40 994 tokyo main 113 113 OOOO______O___ jtwc_wp WP041986 22.0000 122.000 45 0 21.9000 121.900 3 40 994 0 9 80 80 0 21.8000 122.100 3 48 995 21.8000 122.100 TS 40 994 22.0000 122.000 2 45 8 31
1986136N18114 1986 50 WP MM MAC 1986-05-26 15:00:00 TS 22.2608 122.263 main 128 120 PPPP______P___ WP041986 22.3074 122.035 45 0 22.2652 122.250 3 40 994 0 9 80 80 22.2951 122.437 3 43 995 22.1001 122.422 TS 37 995 22.3365 122.172 2 45 8 32
1986136N18114 1986 50 WP MM MAC 1986-05-26 18:00:00 TS 22.5935 122.486 40 994 tokyo main 125 121 OOOO______P___ jtwc_wp WP041986 22.6000 122.100 45 0 22.6000 122.600 3 40 994 0 9 80 80 0 22.7000 122.700 2 38 995 22.4000 122.700 TS 35 996 22.6674 122.330 2 45 7 31
1986136N18114 1986 50 WP MM MAC 1986-05-26 21:00:00 TS 22.8799 122.660 main 134 133 PPPP______P___ WP041986 22.9376 122.342 45 0 22.8299 122.853 3 40 995 0 9 80 80 22.9524 122.795 2 38 995 22.7149 122.838 TS 35 996 22.9646 122.472 2 45 6 28
1986136N18114 1986 50 WP MM MAC 1986-05-27 00:00:00 TS 23.1000 122.780 40 996 tokyo main 143 143 OOOO______O___ jtwc_wp WP041986 23.2000 122.600 45 0 23.0000 123.000 3 40 996 0 9 80 80 0 23.1000 122.800 2 38 996 23.0000 122.900 TS 35 996 23.2000 122.600 2 45 4 25
1986136N18114 1986 50 WP MM MAC 1986-05-27 03:00:00 TS 23.2498 122.851 main 153 149 PPPP______P___ WP041986 23.2799 122.723 42 0 23.1575 123.038 3 40 996 0 9 80 80 23.2150 122.800 2 38 996 23.2450 122.988 TS 35 996 23.3517 122.707 2 43 3 19
1986136N18114 1986 50 WP MM MAC 1986-05-27 06:00:00 TS 23.3480 122.880 40 996 tokyo main 149 146 OOOO______P___ jtwc_wp WP041986 23.3000 122.800 40 0 23.3000 123.000 3 40 996 0 9 80 80 0 23.3000 122.800 2 38 996 23.4000 123.000 TS 35 996 23.4398 122.800 2 42 2 0
1986136N18114 1986 50 WP MM MAC 1986-05-27 09:00:00 TS 23.4446 122.881 main 146 144 PPPP______P___ WP041986 23.4075 122.892 40 0 23.4800 122.958 3 40 996 0 9 80 80 23.4150 122.835 2 38 996 23.4376 122.827 TS 35 996 23.4830 122.894 2 41 2 7
1986136N18114 1986 50 WP MM MAC 1986-05-27 12:00:00 TS 23.5000 122.900 40 996 tokyo main 144 144 OOOO______O___ jtwc_wp WP041986 23.5000 123.000 40 0 23.6000 122.900 3 40 996 0 9 80 80 0 23.5000 122.900 2 38 996 23.4000 122.700 TS 35 996 23.5000 123.000 2 40 1 57
1986136N18114 1986 50 WP MM MAC 1986-05-27 15:00:00 TS 23.4970 122.970 main 154 154 PPPP______P___ WP041986 23.5150 123.143 37 0 23.5724 122.790 3 40 996 0 9 80 80 23.5224 122.970 2 33 997 23.3500 122.848 TS 35 996 23.5253 123.099 2 37 2 100
1986136N18114 1986 50 WP MM MAC 1986-05-27 18:00:00 TS 23.4659 123.104 40 996 tokyo main 164 164 OOOO______P___ jtwc_wp WP041986 23.5000 123.300 35 0 23.5000 122.800 3 40 996 0 9 80 80 0 23.5000 123.100 1 29 998 23.3000 123.100 TS 35 996 23.5294 123.218 2 35 3 98
1986136N18114 1986 50 WP MM MAC 1986-05-27 21:00:00 TS 23.4523 123.309 main 180 180 PPPP______P___ WP041986 23.5074 123.435 32 -1 23.4928 123.105 3 40 996 0 9 80 80 23.4501 123.335 1 29 998 23.2924 123.292 TS 35 997 23.5189 123.377 2 32 4 94
1986136N18114 1986 50 WP MM MAC 1986-05-28 00:00:00 TS 23.4400 123.560 40 996 tokyo main 211 211 OOOO______O___ jtwc_wp WP041986 23.5000 123.600 30 -1 23.5000 123.500 3 40 996 0 9 80 80 0 23.4000 123.600 1 29 998 23.3000 123.500 TS 35 998 23.5000 123.600 1 30 4 95
1986136N18114 1986 50 WP MM MAC 1986-05-28 03:00:00 TS 23.4174 123.776 main 228 228 PPPP______P___ WP041986 23.4498 123.798 30 -1 23.5072 123.735 3 37 996 0 9 65 65 23.3848 123.778 1 29 998 23.2922 123.705 TS 32 998 23.4531 123.867 1 30 5 95
1986136N18114 1986 50 WP MM MAC 1986-05-28 06:00:00 TS 23.4008 124.060 35 996 tokyo main 255 255 OOOO______P___ jtwc_wp WP041986 23.4000 124.100 30 -1 23.5000 124.000 3 35 996 0 9 50 50 0 23.4000 124.000 1 29 998 23.3000 124.000 TD 30 998 23.4039 124.202 1 30 6 92
1986136N18114 1986 50 WP MM MAC 1986-05-28 09:00:00 TS 23.3904 124.466 main 291 291 PPPP______P___ WP041986 23.3700 124.548 30 -1 23.4274 124.398 3 998 0 9 23.4421 124.325 1 29 999 23.3350 124.448 TD 27 999 23.3777 124.611 1 30 8 89
1986136N18114 1986 50 WP MM MAC 1986-05-28 12:00:00 TS 23.4200 124.980 1000 tokyo main 337 337 OOOO______O___ jtwc_wp WP041986 23.4000 125.100 30 -1 23.4000 124.900 2 1000 0 0 0 23.5000 124.800 1 29 1000 23.4000 125.000 TD 25 1000 23.4000 125.100 1 30 10 83
1986136N18114 1986 50 WP MM MAC 1986-05-28 15:00:00 TS 23.5139 125.564 main 391 391 PPPP______P___ WP041986 23.5273 125.670 30 -1 23.5123 125.462 2 1000 0 0 23.5503 125.463 1 29 1000 23.4923 125.577 TD 25 1000 23.4873 125.647 1 30 12 79
1986136N18114 1986 50 WP MM MAC 1986-05-28 18:00:00 TS 23.6449 126.215 1000 tokyo main 447 447 OOOO______P___ jtwc_wp WP041986 23.7000 126.300 30 -1 23.7000 126.100 2 1000 0 0 0 23.6000 126.200 1 29 1000 23.6000 126.200 TD 25 1000 23.6245 126.273 1 30 12 78
1986136N18114 1986 50 WP MM MAC 1986-05-28 21:00:00 TS 23.7629 126.867 main 512 512 PPPP______P___ WP041986 23.8422 126.970 30 -1 23.8848 126.778 2 1000 0 0 23.6192 126.828 1 29 1000 23.6692 126.798 TD 25 1000 23.7994 126.963 1 30 13 77
1986136N18114 1986 50 WP MM MAC 1986-05-29 00:00:00 TS 23.9263 127.584 1000 tokyo main 579 579 OOOO______O___ jtwc_wp WP041986 24.0000 127.700 30 -1 24.1000 127.500 2 1000 0 0 0 23.7000 127.500 1 29 1000 23.8000 127.500 TD 25 1000 24.0000 127.700 1 30 14 75
1986136N18114 1986 50 WP MM MAC 1986-05-29 03:00:00 TS 24.1314 128.362 main 654 654 PPPP______P___ WP041986 24.1848 128.485 30 -1 24.3421 128.235 2 1000 0 0 23.8974 128.313 1 29 1000 24.0618 128.391 TD 25 1000 24.1359 128.401 1 28 15 72
1986136N18114 1986 50 WP MM MAC 1986-05-29 06:00:00 TS 24.3875 129.167 1000 tokyo main 729 718 OOOO______P___ jtwc_wp WP041986 24.4000 129.300 30 -1 24.6000 129.000 2 1000 0 0 0 24.2000 129.200 1 29 1000 24.4000 129.400 TD 25 1000 24.3033 129.151 1 27 15 70
1986136N18114 1986 50 WP MM MAC 1986-05-29 09:00:00 TS 24.6582 129.932 main 707 669 PPP_______P___ WP041986 24.6432 130.104 27 -1 24.8182 129.719 2 999 0 0 24.5809 130.099 1 29 1000 TD 24.5442 129.975 1 26 16 68
1986136N18114 1986 50 WP MM MAC 1986-05-29 12:00:00 TS 24.9900 130.790 998 tokyo main 669 632 OOO_______O___ jtwc_wp WP041986 24.9000 130.900 25 -1 25.1000 130.600 2 998 0 0 0 25.0000 131.000 1 29 1000 24.9000 130.900 1 25 19 66
1986136N18114 1986 50 WP MM MAC 1986-05-29 15:00:00 TS 25.4393 131.875 main 636 605 _P________P___ WP041986 -1 25.5131 131.825 2 997 0 0 1 25.3654 131.925 1 25 23 65
1986136N18114 1986 50 WP MM MAC 1986-05-29 18:00:00 TS 25.9738 133.130 996 tokyo main 605 602 _O________P___ -1 26.0000 133.200 2 996 0 0 0 25.9476 133.059 1 25 25 64
1986136N18114 1986 50 WP MM MAC 1986-05-29 21:00:00 TS 26.5157 134.382 main 618 614 _P________P___ -1 26.4006 134.475 2 997 0 0 26.6308 134.289 1 25 26 62
1986136N18114 1986 50 WP MM MAC 1986-05-30 00:00:00 TS 27.2000 135.700 998 tokyo main 626 602 _O________O___ -1 27.0000 135.800 2 998 0 0 0 27.4000 135.600 5 25 29 57
1986136N18114 1986 50 WP MM MAC 1986-05-30 03:00:00 TS 28.1113 137.113 main 604 543 _P________P___ -1 27.9866 137.250 2 998 0 0 28.2360 136.977 5 25 32 53
1986136N18114 1986 50 WP MM MAC 1986-05-30 06:00:00 TS 29.1500 138.600 998 tokyo main 538 _O________O___ -1 29.2000 138.800 2 998 0 0 0 29.1000 138.400 5 25 33 51

デジタル台風データ・検索

IBTrACS Databaseについて

本データベースは、米国NOAAが公開する1842年以降の世界の熱帯低気圧のベストトラックデータアーカイブInternational Best Track Archive for Climate Stewardship (IBTrACS)を、ウェブで閲覧しやすい形式に変換したものです。

最終更新日:2021-12-06